Argo — SMOH — position and weather

sailwx.info

Track history (hours):
 
Tides and Currents Weather Stations Pressure Air Temp Water Temp Dewpoint Dewpoint Depression Visibility Wind Speed Wind Dir Waves Ship Positions

Argo

Last reported at 2017-May-16 15:45 UTC. Time now 2017-May-26 03:31 UTC.
Position N 56°09' E 015°35'.
Warning: this ship's position is 9 days out of date.

Length 26 m.

Type: Military. MMSI: 265591600.

Date/timePositionNaut miles runAvg speedWind from/ knotsBaromVisibWave heightAir tempDewpointWater temp
2017-May-16 15:45N 56°09' E 015°35'0 1.7
2017-May-16 15:30N 56°09' E 015°36'815.9
2017-May-16 15:00N 56°02' E 015°41'816.3
2017-May-16 14:30N 56°05' E 015°55'2120.1
2017-May-16 13:29N 56°23' E 016°11'  
2017-May-09 18:28N 59°39' E 019°10'920.0
2017-May-09 18:00N 59°30' E 019°05'8318.1
2017-May-09 13:26N 58°37' E 017°01'134 4.8
2017-May-08 09:47N 56°26' E 016°13'620.9
2017-May-08 09:30N 56°20' E 016°10'1020.7
2017-May-08 09:00N 56°10' E 016°03'1019.9
2017-May-08 08:30N 56°04' E 015°50'5 9.4
2017-May-08 08:00N 56°08' E 015°47'712.1
2017-May-08 07:28N 56°09' E 015°35'  
Track history (hours):
 
Tides and Currents Weather Stations Pressure Air Temp Water Temp Dewpoint Dewpoint Depression Visibility Wind Speed Wind Dir Waves Ship Positions

Argo

Last reported at 2017-May-16 15:45 UTC. Time now 2017-May-26 03:31 UTC.
Position N 56°09' E 015°35'.
Warning: this ship's position is 9 days out of date.

Length 26 m.

Type: Military. MMSI: 265591600.

Date/timePositionNaut miles runAvg speedWind from/ knotsBaromVisibWave heightAir tempDewpointWater temp
2017-May-16 15:45N 56°09' E 015°35'0 1.7
2017-May-16 15:30N 56°09' E 015°36'815.9
2017-May-16 15:00N 56°02' E 015°41'816.3
2017-May-16 14:30N 56°05' E 015°55'2120.1
2017-May-16 13:29N 56°23' E 016°11'  
2017-May-09 18:28N 59°39' E 019°10'920.0
2017-May-09 18:00N 59°30' E 019°05'8318.1
2017-May-09 13:26N 58°37' E 017°01'134 4.8
2017-May-08 09:47N 56°26' E 016°13'620.9
2017-May-08 09:30N 56°20' E 016°10'1020.7
2017-May-08 09:00N 56°10' E 016°03'1019.9
2017-May-08 08:30N 56°04' E 015°50'5 9.4
2017-May-08 08:00N 56°08' E 015°47'712.1
2017-May-08 07:28N 56°09' E 015°35'  

Dump ship's entire track history